sensor_id;sensor_type;location;lat;lon;timestamp;pressure;altitude;pressure_sealevel;temperature;humidity
36304;BME280;22335;49.800;8.596;2022-09-12T00:00:05;100607.28;;;23.28;47.54
36304;BME280;22335;49.800;8.596;2022-09-12T00:06:54;100610.22;;;23.15;47.32
36304;BME280;22335;49.800;8.596;2022-09-12T00:13:40;100600.97;;;23.11;47.43
36304;BME280;22335;49.800;8.596;2022-09-12T00:20:29;100602.84;;;23.07;47.35
36304;BME280;22335;49.800;8.596;2022-09-12T00:27:14;100601.03;;;22.95;47.38
36304;BME280;22335;49.800;8.596;2022-09-12T00:34:00;100608.38;;;22.88;47.72
36304;BME280;22335;49.800;8.596;2022-09-12T00:40:48;100593.19;;;23.01;47.03
36304;BME280;22335;49.800;8.596;2022-09-12T00:47:35;100595.38;;;22.76;47.72
36304;BME280;22335;49.800;8.596;2022-09-12T00:54:23;100590.28;;;22.62;47.39
36304;BME280;22335;49.800;8.596;2022-09-12T01:01:14;100597.69;;;22.39;47.37
36304;BME280;22335;49.800;8.596;2022-09-12T01:08:00;100595.28;;;22.21;47.29
36304;BME280;22335;49.800;8.596;2022-09-12T01:14:49;100600.84;;;22.05;47.43
36304;BME280;22335;49.800;8.596;2022-09-12T01:21:45;100584.84;;;22.02;47.85
36304;BME280;22335;49.800;8.596;2022-09-12T01:29:02;100509.19;;;21.53;47.81
36304;BME280;22335;49.800;8.596;2022-09-12T01:36:25;100582.78;;;21.99;47.68
36304;BME280;22335;49.800;8.596;2022-09-12T01:43:27;100518.44;;;21.57;47.92
36304;BME280;22335;49.800;8.596;2022-09-12T01:50:18;100570.38;;;21.97;47.84
36304;BME280;22335;49.800;8.596;2022-09-12T01:57:12;100567.84;;;21.92;48.18
36304;BME280;22335;49.800;8.596;2022-09-12T02:04:05;100558.34;;;21.93;48.12
36304;BME280;22335;49.800;8.596;2022-09-12T02:10:55;100547.56;;;21.91;48.36
36304;BME280;22335;49.800;8.596;2022-09-12T02:17:49;100543.66;;;21.80;48.15
36304;BME280;22335;49.800;8.596;2022-09-12T02:24:36;100556.34;;;21.77;48.29
36304;BME280;22335;49.800;8.596;2022-09-12T02:31:27;100550.59;;;21.70;48.17
36304;BME280;22335;49.800;8.596;2022-09-12T02:38:24;100536.03;;;21.61;48.37
36304;BME280;22335;49.800;8.596;2022-09-12T03:06:00;100534.06;;;21.33;48.26
36304;BME280;22335;49.800;8.596;2022-09-12T03:12:53;100546.63;;;21.27;48.30
36304;BME280;22335;49.800;8.596;2022-09-12T03:19:51;100534.97;;;21.22;48.48
36304;BME280;22335;49.800;8.596;2022-09-12T03:26:47;100541.09;;;21.15;48.83
36304;BME280;22335;49.800;8.596;2022-09-12T03:33:36;100545.06;;;21.14;48.89
36304;BME280;22335;49.800;8.596;2022-09-12T03:40:21;100531.91;;;20.99;48.83
36304;BME280;22335;49.800;8.596;2022-09-12T03:47:10;100535.84;;;20.98;48.85
36304;BME280;22335;49.800;8.596;2022-09-12T03:53:55;100544.91;;;20.94;48.79
36304;BME280;22335;49.800;8.596;2022-09-12T04:00:40;100533.69;;;20.91;48.80
36304;BME280;22335;49.800;8.596;2022-09-12T04:07:28;100517.94;;;20.83;49.25
36304;BME280;22335;49.800;8.596;2022-09-12T04:14:14;100522.59;;;20.79;48.91
36304;BME280;22335;49.800;8.596;2022-09-12T04:21:03;100522.50;;;20.75;49.20
36304;BME280;22335;49.800;8.596;2022-09-12T04:27:51;100535.13;;;20.72;49.02
36304;BME280;22335;49.800;8.596;2022-09-12T04:34:36;100521.69;;;20.62;48.96
36304;BME280;22335;49.800;8.596;2022-09-12T04:41:24;100541.28;;;20.66;48.62
36304;BME280;22335;49.800;8.596;2022-09-12T04:48:13;100541.16;;;20.50;49.07
36304;BME280;22335;49.800;8.596;2022-09-12T04:54:59;100545.09;;;20.49;48.64
36304;BME280;22335;49.800;8.596;2022-09-12T05:01:45;100541.28;;;20.41;48.97
36304;BME280;22335;49.800;8.596;2022-09-12T05:08:34;100539.56;;;20.37;48.47
36304;BME280;22335;49.800;8.596;2022-09-12T05:15:19;100548.94;;;20.32;49.04
36304;BME280;22335;49.800;8.596;2022-09-12T05:22:05;100550.44;;;20.30;48.56
36304;BME280;22335;49.800;8.596;2022-09-12T05:28:53;100548.84;;;20.29;48.80
36304;BME280;22335;49.800;8.596;2022-09-12T05:35:39;100491.44;;;19.84;49.00
36304;BME280;22335;49.800;8.596;2022-09-12T05:42:24;100555.09;;;20.25;49.04
36304;BME280;22335;49.800;8.596;2022-09-12T05:49:12;100549.38;;;20.22;49.11
36304;BME280;22335;49.800;8.596;2022-09-12T05:56:05;100548.94;;;20.20;49.40
36304;BME280;22335;49.800;8.596;2022-09-12T06:02:52;100558.09;;;20.20;49.37
36304;BME280;22335;49.800;8.596;2022-09-12T06:09:40;100551.63;;;20.16;49.71
36304;BME280;22335;49.800;8.596;2022-09-12T06:16:27;100503.72;;;19.95;49.67
36304;BME280;22335;49.800;8.596;2022-09-12T06:23:13;100541.53;;;20.24;50.03
36304;BME280;22335;49.800;8.596;2022-09-12T06:30:01;100533.41;;;20.31;50.19
36304;BME280;22335;49.800;8.596;2022-09-12T06:36:48;100531.69;;;20.39;50.09
36304;BME280;22335;49.800;8.596;2022-09-12T06:43:34;100525.88;;;20.56;50.20
36304;BME280;22335;49.800;8.596;2022-09-12T06:50:21;100520.88;;;20.74;50.92
36304;BME280;22335;49.800;8.596;2022-09-12T06:57:07;100528.56;;;20.93;50.56
36304;BME280;22335;49.800;8.596;2022-09-12T07:03:54;100513.56;;;21.10;51.05
36304;BME280;22335;49.800;8.596;2022-09-12T07:10:43;100511.53;;;21.23;51.28
36304;BME280;22335;49.800;8.596;2022-09-12T07:17:28;100518.25;;;21.50;50.99
36304;BME280;22335;49.800;8.596;2022-09-12T07:24:14;100495.38;;;21.56;51.47
36304;BME280;22335;49.800;8.596;2022-09-12T07:31:07;100476.44;;;21.62;51.30
36304;BME280;22335;49.800;8.596;2022-09-12T07:37:54;100515.09;;;22.15;51.70
36304;BME280;22335;49.800;8.596;2022-09-12T07:44:39;100514.00;;;22.35;51.11
36304;BME280;22335;49.800;8.596;2022-09-12T07:51:29;100517.66;;;22.55;51.48
36304;BME280;22335;49.800;8.596;2022-09-12T07:58:15;100510.03;;;22.71;51.25
36304;BME280;22335;49.800;8.596;2022-09-12T08:05:00;100522.97;;;22.79;51.29
36304;BME280;22335;49.800;8.596;2022-09-12T08:11:48;100520.19;;;22.79;51.56
36304;BME280;22335;49.800;8.596;2022-09-12T08:18:34;100525.63;;;22.92;51.94
36304;BME280;22335;49.800;8.596;2022-09-12T08:25:20;100524.56;;;23.19;50.94
36304;BME280;22335;49.800;8.596;2022-09-12T08:32:08;100526.22;;;23.20;51.70
36304;BME280;22335;49.800;8.596;2022-09-12T08:38:56;100521.47;;;23.44;51.75
36304;BME280;22335;49.800;8.596;2022-09-12T08:45:49;100515.84;;;23.63;51.47
36304;BME280;22335;49.800;8.596;2022-09-12T08:52:50;100504.56;;;23.79;51.64
36304;BME280;22335;49.800;8.596;2022-09-12T08:59:40;100512.91;;;24.02;51.75
36304;BME280;22335;49.800;8.596;2022-09-12T09:06:56;100512.75;;;24.18;51.47
36304;BME280;22335;49.800;8.596;2022-09-12T09:14:13;100501.09;;;24.39;51.57
36304;BME280;22335;49.800;8.596;2022-09-12T09:21:25;100500.34;;;24.69;51.06
36304;BME280;22335;49.800;8.596;2022-09-12T09:28:16;100510.22;;;24.93;50.74
36304;BME280;22335;49.800;8.596;2022-09-12T09:35:15;100516.50;;;25.13;50.29
36304;BME280;22335;49.800;8.596;2022-09-12T09:42:12;100511.59;;;25.40;50.23
36304;BME280;22335;49.800;8.596;2022-09-12T09:49:05;100500.97;;;25.60;49.36
36304;BME280;22335;49.800;8.596;2022-09-12T09:55:55;100497.19;;;25.82;48.74
36304;BME280;22335;49.800;8.596;2022-09-12T10:02:42;100495.81;;;26.13;47.97
36304;BME280;22335;49.800;8.596;2022-09-12T10:09:28;100490.13;;;26.54;48.29
36304;BME280;22335;49.800;8.596;2022-09-12T10:16:23;100484.56;;;26.68;47.21
36304;BME280;22335;49.800;8.596;2022-09-12T10:23:26;100469.38;;;26.80;46.49
36304;BME280;22335;49.800;8.596;2022-09-12T10:30:16;100479.09;;;27.08;46.13
36304;BME280;22335;49.800;8.596;2022-09-12T10:37:14;100418.50;;;26.85;45.66
36304;BME280;22335;49.800;8.596;2022-09-12T10:44:05;100467.09;;;27.25;45.44
36304;BME280;22335;49.800;8.596;2022-09-12T10:50:52;100458.31;;;27.48;44.54
36304;BME280;22335;49.800;8.596;2022-09-12T10:57:58;100449.09;;;27.69;43.96
36304;BME280;22335;49.800;8.596;2022-09-12T11:04:58;100438.69;;;27.88;43.58
36304;BME280;22335;49.800;8.596;2022-09-12T11:12:00;100432.25;;;27.94;43.48
36304;BME280;22335;49.800;8.596;2022-09-12T11:26:38;100424.88;;;28.36;42.22
36304;BME280;22335;49.800;8.596;2022-09-12T11:33:40;100430.53;;;28.47;42.02
36304;BME280;22335;49.800;8.596;2022-09-12T11:40:34;100415.19;;;28.55;41.47
36304;BME280;22335;49.800;8.596;2022-09-12T11:47:22;100415.91;;;28.81;42.25
36304;BME280;22335;49.800;8.596;2022-09-12T11:54:13;100412.28;;;28.77;40.97
36304;BME280;22335;49.800;8.596;2022-09-12T12:01:11;100399.69;;;28.95;41.42
36304;BME280;22335;49.800;8.596;2022-09-12T12:08:04;100373.28;;;28.79;40.93
36304;BME280;22335;49.800;8.596;2022-09-12T12:14:52;100295.81;;;28.56;40.98
36304;BME280;22335;49.800;8.596;2022-09-12T12:21:43;100381.06;;;29.19;40.34
36304;BME280;22335;49.800;8.596;2022-09-12T12:28:57;100369.41;;;29.21;40.27
36304;BME280;22335;49.800;8.596;2022-09-12T12:35:44;100363.97;;;29.41;39.40
36304;BME280;22335;49.800;8.596;2022-09-12T12:43:04;100355.78;;;29.61;39.11
36304;BME280;22335;49.800;8.596;2022-09-12T12:50:20;100342.03;;;29.67;38.25
36304;BME280;22335;49.800;8.596;2022-09-12T12:57:20;100340.69;;;29.78;38.27
36304;BME280;22335;49.800;8.596;2022-09-12T13:04:16;100315.72;;;29.80;38.16
36304;BME280;22335;49.800;8.596;2022-09-12T13:11:07;100299.69;;;29.74;38.36
36304;BME280;22335;49.800;8.596;2022-09-12T13:17:58;100311.97;;;29.91;37.93
36304;BME280;22335;49.800;8.596;2022-09-12T13:24:49;100308.94;;;29.74;37.72
36304;BME280;22335;49.800;8.596;2022-09-12T13:31:36;100272.94;;;29.48;38.22
36304;BME280;22335;49.800;8.596;2022-09-12T13:38:36;100295.25;;;29.73;37.85
36304;BME280;22335;49.800;8.596;2022-09-12T13:45:36;100286.19;;;29.88;36.79
36304;BME280;22335;49.800;8.596;2022-09-12T13:52:24;100265.66;;;29.88;36.52
36304;BME280;22335;49.800;8.596;2022-09-12T13:59:11;100279.13;;;30.07;36.45
36304;BME280;22335;49.800;8.596;2022-09-12T14:05:59;100255.09;;;29.96;36.42
36304;BME280;22335;49.800;8.596;2022-09-12T14:12:47;100267.81;;;30.11;36.00
36304;BME280;22335;49.800;8.596;2022-09-12T14:19:33;100269.44;;;30.08;35.92
36304;BME280;22335;49.800;8.596;2022-09-12T14:26:21;100255.47;;;29.98;35.11
36304;BME280;22335;49.800;8.596;2022-09-12T14:33:17;100249.69;;;30.08;35.74
36304;BME280;22335;49.800;8.596;2022-09-12T14:40:15;100248.00;;;30.15;35.57
36304;BME280;22335;49.800;8.596;2022-09-12T14:47:20;100239.94;;;30.17;35.77
36304;BME280;22335;49.800;8.596;2022-09-12T14:54:33;100224.94;;;30.23;34.99
36304;BME280;22335;49.800;8.596;2022-09-12T15:01:23;100221.75;;;30.21;34.89
36304;BME280;22335;49.800;8.596;2022-09-12T15:08:14;100211.06;;;30.05;34.77
36304;BME280;22335;49.800;8.596;2022-09-12T15:15:06;100176.66;;;29.87;34.13
36304;BME280;22335;49.800;8.596;2022-09-12T15:21:58;100211.00;;;30.09;34.37
36304;BME280;22335;49.800;8.596;2022-09-12T15:28:46;100196.78;;;30.20;34.26
36304;BME280;22335;49.800;8.596;2022-09-12T15:35:32;100196.44;;;30.14;33.84
36304;BME280;22335;49.800;8.596;2022-09-12T15:42:23;100190.72;;;30.21;34.27
36304;BME280;22335;49.800;8.596;2022-09-12T15:49:15;100181.97;;;30.39;34.13
36304;BME280;22335;49.800;8.596;2022-09-12T15:56:01;100181.38;;;30.51;33.41
36304;BME280;22335;49.800;8.596;2022-09-12T16:02:48;100156.84;;;30.48;33.15
36304;BME280;22335;49.800;8.596;2022-09-12T16:09:38;100172.38;;;30.60;33.47
36304;BME280;22335;49.800;8.596;2022-09-12T16:16:23;100172.31;;;30.64;33.40
36304;BME280;22335;49.800;8.596;2022-09-12T16:23:09;100173.41;;;30.70;33.53
36304;BME280;22335;49.800;8.596;2022-09-12T16:29:58;100158.06;;;30.71;33.37
36304;BME280;22335;49.800;8.596;2022-09-12T16:36:43;100183.41;;;30.74;33.21
36304;BME280;22335;49.800;8.596;2022-09-12T16:43:30;100162.47;;;30.72;33.77
36304;BME280;22335;49.800;8.596;2022-09-12T16:50:19;100150.44;;;30.68;33.61
36304;BME280;22335;49.800;8.596;2022-09-12T16:57:04;100145.34;;;30.59;33.66
36304;BME280;22335;49.800;8.596;2022-09-12T17:03:51;100134.78;;;30.40;33.46
36304;BME280;22335;49.800;8.596;2022-09-12T17:10:42;100144.50;;;30.39;33.70
36304;BME280;22335;49.800;8.596;2022-09-12T17:17:27;100156.69;;;30.32;33.81
36304;BME280;22335;49.800;8.596;2022-09-12T17:24:13;100158.03;;;30.24;33.94
36304;BME280;22335;49.800;8.596;2022-09-12T17:31:03;100073.09;;;29.64;34.42
36304;BME280;22335;49.800;8.596;2022-09-12T17:37:49;100159.84;;;30.07;34.12
36304;BME280;22335;49.800;8.596;2022-09-12T17:44:35;100112.97;;;29.62;34.35
36304;BME280;22335;49.800;8.596;2022-09-12T17:51:25;100149.75;;;29.82;33.88
36304;BME280;22335;49.800;8.596;2022-09-12T17:58:11;100159.91;;;29.76;33.86
36304;BME280;22335;49.800;8.596;2022-09-12T18:04:56;100157.16;;;29.69;34.28
36304;BME280;22335;49.800;8.596;2022-09-12T18:11:48;100160.47;;;29.60;34.42
36304;BME280;22335;49.800;8.596;2022-09-12T18:18:35;100156.09;;;29.56;34.22
36304;BME280;22335;49.800;8.596;2022-09-12T18:25:21;100161.44;;;29.47;34.64
36304;BME280;22335;49.800;8.596;2022-09-12T18:32:09;100160.47;;;29.30;34.83
36304;BME280;22335;49.800;8.596;2022-09-12T18:38:56;100156.91;;;29.22;35.29
36304;BME280;22335;49.800;8.596;2022-09-12T18:45:43;100162.25;;;29.13;35.69
36304;BME280;22335;49.800;8.596;2022-09-12T18:52:31;100159.06;;;29.07;35.49
36304;BME280;22335;49.800;8.596;2022-09-12T18:59:16;100150.38;;;28.91;35.17
36304;BME280;22335;49.800;8.596;2022-09-12T19:06:06;100147.81;;;28.66;35.88
36304;BME280;22335;49.800;8.596;2022-09-12T19:12:55;100156.38;;;28.48;35.92
36304;BME280;22335;49.800;8.596;2022-09-12T19:19:42;100159.31;;;28.30;36.32
36304;BME280;22335;49.800;8.596;2022-09-12T19:26:28;100130.19;;;27.99;36.67
36304;BME280;22335;49.800;8.596;2022-09-12T19:33:16;100165.06;;;28.09;36.89
36304;BME280;22335;49.800;8.596;2022-09-12T19:40:02;100159.19;;;27.89;36.39
36304;BME280;22335;49.800;8.596;2022-09-12T19:46:48;100152.81;;;27.70;36.87
36304;BME280;22335;49.800;8.596;2022-09-12T19:53:37;100143.69;;;27.48;37.29
36304;BME280;22335;49.800;8.596;2022-09-12T20:00:23;100134.94;;;27.35;37.19
36304;BME280;22335;49.800;8.596;2022-09-12T20:07:08;100137.00;;;27.17;37.44
36304;BME280;22335;49.800;8.596;2022-09-12T20:13:56;100124.97;;;26.99;37.66
36304;BME280;22335;49.800;8.596;2022-09-12T20:20:42;100113.00;;;26.73;37.42
36304;BME280;22335;49.800;8.596;2022-09-12T20:27:28;100026.88;;;25.91;37.97
36304;BME280;22335;49.800;8.596;2022-09-12T20:34:18;100025.69;;;25.89;38.00
36304;BME280;22335;49.800;8.596;2022-09-12T20:41:06;100069.34;;;26.11;38.14
36304;BME280;22335;49.800;8.596;2022-09-12T20:47:53;100113.81;;;26.27;38.85
36304;BME280;22335;49.800;8.596;2022-09-12T20:54:41;100076.16;;;26.42;37.83
36304;BME280;22335;49.800;8.596;2022-09-12T21:01:27;100056.94;;;26.16;38.42
36304;BME280;22335;49.800;8.596;2022-09-12T21:08:13;100037.72;;;25.93;38.58
36304;BME280;22335;49.800;8.596;2022-09-12T21:15:02;100049.72;;;25.93;38.87
36304;BME280;22335;49.800;8.596;2022-09-12T21:21:48;100038.03;;;25.70;38.96
36304;BME280;22335;49.800;8.596;2022-09-12T21:28:34;100062.53;;;25.87;39.00
36304;BME280;22335;49.800;8.596;2022-09-12T21:35:22;100061.72;;;25.83;39.46
36304;BME280;22335;49.800;8.596;2022-09-12T21:42:08;100072.13;;;25.86;39.17
36304;BME280;22335;49.800;8.596;2022-09-12T21:48:53;100073.31;;;25.85;39.31
36304;BME280;22335;49.800;8.596;2022-09-12T21:55:41;100040.47;;;25.64;39.60
36304;BME280;22335;49.800;8.596;2022-09-12T22:02:27;100048.03;;;25.57;39.29
36304;BME280;22335;49.800;8.596;2022-09-12T22:09:12;100072.88;;;25.65;39.75
36304;BME280;22335;49.800;8.596;2022-09-12T22:16:01;100066.41;;;25.54;40.12
36304;BME280;22335;49.800;8.596;2022-09-12T22:22:48;100067.56;;;25.39;39.78
36304;BME280;22335;49.800;8.596;2022-09-12T22:29:48;100057.53;;;25.23;40.45
36304;BME280;22335;49.800;8.596;2022-09-12T22:36:36;100052.25;;;25.11;40.44
36304;BME280;22335;49.800;8.596;2022-09-12T22:43:21;100048.22;;;25.05;40.44
36304;BME280;22335;49.800;8.596;2022-09-12T22:50:07;100049.41;;;25.00;40.78
36304;BME280;22335;49.800;8.596;2022-09-12T22:56:55;100051.75;;;24.91;40.52
36304;BME280;22335;49.800;8.596;2022-09-12T23:03:41;100048.94;;;24.84;40.60
36304;BME280;22335;49.800;8.596;2022-09-12T23:10:27;100050.91;;;24.80;41.06
36304;BME280;22335;49.800;8.596;2022-09-12T23:17:15;100034.88;;;24.70;40.99
36304;BME280;22335;49.800;8.596;2022-09-12T23:24:01;100033.28;;;24.69;41.58
36304;BME280;22335;49.800;8.596;2022-09-12T23:30:53;100033.19;;;24.58;41.52
36304;BME280;22335;49.800;8.596;2022-09-12T23:37:43;100037.16;;;24.50;41.92
36304;BME280;22335;49.800;8.596;2022-09-12T23:44:29;99980.91;;;24.03;41.97
36304;BME280;22335;49.800;8.596;2022-09-12T23:51:14;99958.34;;;23.78;41.99
36304;BME280;22335;49.800;8.596;2022-09-12T23:58:05;100039.31;;;24.19;42.11
